Friday, January 19, 2018, 10:32 PM EST
Back to Local

KCDW, Caldwell Essex County Airport

Location: Fairfield, NJ, United States Lat: 40.883
Local Time: 10:32 PM EST ( 3:32 GMT) Lon: -74.283
Time Zone: US/Eastern Elev: 173 ft

Show me the last for .
Show Decoded

2018-01-19 21:53 METAR KCDW 200253Z 22004KT 10SM CLR M01/M08 A2997 RMK AO2 SLP157 T10061078 58002
                 =
2018-01-19 20:53 METAR KCDW 200153Z 00000KT 10SM CLR M02/M08 A2999 RMK AO2 SLP162 T10171078 =
2018-01-19 19:53 METAR KCDW 200053Z 00000KT 10SM CLR M01/M08 A2999 RMK AO2 SLP162 T10061078 =
2018-01-19 18:53 METAR KCDW 192353Z VRB03KT 10SM CLR 01/M08 A2998 RMK AO2 SLP160 T00061083 10033
                 20000 50002 =
2018-01-19 17:53 METAR KCDW 192253Z 00000KT 10SM CLR 01/M08 A2998 RMK AO2 SLP160 T00111083 =
2018-01-19 16:53 METAR KCDW 192153Z 22004KT 10SM CLR 02/M08 A2998 RMK AO2 SLP158 T00171083 =
2018-01-19 15:53 METAR KCDW 192053Z 21004KT 10SM CLR 03/M08 A2997 RMK AO2 SLP157 T00281083 55010
                 =
2018-01-19 14:53 METAR KCDW 191953Z VRB05KT 10SM CLR 02/M09 A2997 RMK AO2 SLP156 T00221089 =
2018-01-19 13:53 METAR KCDW 191853Z VRB04KT 10SM CLR 01/M09 A2999 RMK AO2 SLP163 T00111089 =
2018-01-19 12:53 METAR KCDW 191753Z 22005KT 10SM CLR 01/M09 A3000 RMK AO2 SLP168 T00111089 10011
                 21094 58027 =
2018-01-19 11:53 METAR KCDW 191653Z 24004KT 10SM CLR M01/M09 A3003 RMK AO2 SLP179 T10061089 =
2018-01-19 10:53 METAR KCDW 191553Z 22005KT 10SM CLR M02/M09 A3007 RMK AO2 SLP190 T10221094 =
2018-01-19 09:53 METAR KCDW 191453Z VRB03KT 10SM CLR M03/M09 A3008 RMK AO2 SLP195 T10331094 53006
                 =
2018-01-19 08:53 METAR KCDW 191353Z 00000KT 10SM CLR M05/M09 A3008 RMK AO2 SLP193 T10501089 =
2018-01-19 07:53 METAR KCDW 191253Z 00000KT 9SM CLR M08/M11 A3007 RMK AO2 SLP190 T10831106 =
2018-01-19 06:53 METAR KCDW 191153Z 00000KT 9SM CLR M09/M11 A3007 RMK AO2 SLP190 T10941106 11089
                 21100 53001 =
2018-01-19 05:53 METAR KCDW 191053Z 00000KT 8SM CLR M10/M11 A3006 RMK AO2 SLP189 T11001111 =
2018-01-19 04:53 METAR KCDW 190953Z 24003KT 10SM CLR M09/M11 A3006 RMK AO2 SLP189 T10891111 =
2018-01-19 03:53 METAR KCDW 190853Z 21004KT 9SM CLR M09/M11 A3007 RMK AO2 SLP189 T10941106 53005
                 =
2018-01-19 02:53 METAR KCDW 190753Z 00000KT 9SM CLR M09/M11 A3005 RMK AO2 SLP184 T10941111 =
2018-01-19 01:53 METAR KCDW 190653Z 00000KT 9SM CLR M09/M11 A3005 RMK AO2 SLP184 T10941111 =
2018-01-19 00:53 METAR KCDW 190553Z 00000KT 9SM CLR M09/M11 A3005 RMK AO2 SLP184 T10941111 11028
                 21094 58014 =
2018-01-18 23:53 METAR KCDW 190453Z 19003KT 10SM CLR M08/M11 A3008 RMK AO2 SLP193 T10831111
                 410061117 =
2018-01-18 22:53 METAR KCDW 190353Z 00000KT 10SM CLR M07/M11 A3008 RMK AO2 SLP195 T10721111 =

Support USWX by starting your Amazon purchase here.